Weather at Cametá Airport [CLOSED]

Public forecast

Using degrees Celsius for public forecast. Weather courtesy of forecast.io.

Closest aviation weather report (METAR) to Cametá Airport

Closest report is Val de Cans/Júlio Cezar Ribeiro International Airport, 80.7 nm (149.5 km) NE. Retrieved 2021/09/16 10:00 UTC (36 minutes ago):

SBBE 161000Z 13005KT 9999 SCT020 SCT100 24/23 Q1015

Closest aviation forecast (TAF) to Cametá Airport

Forecast is more than 12 hours old.

Closest forecast is Val de Cans/Júlio Cezar Ribeiro International Airport, 80.7 nm (149.5 km) NE. Retrieved 2021/09/15 18:00 UTC (17 hours ago):

TAF SBBE 151536Z 1518/1618 35010KT 8000 BKN030 FEW035TCU TN24/1609Z TX30/1616Z TEMPO 1518/1522 3000 TSRA BKN012 FEW025CB BECMG 1522/1524 06005KT BECMG 1615/1617 35007KT RMK PHI